sensor_id;sensor_type;location;lat;lon;timestamp;pressure;altitude;pressure_sealevel;temperature;humidity
19600;BME280;9947;57.722;12.012;2024-02-21T00:00:30;101278.09;;;5.12;100.00
19600;BME280;9947;57.722;12.012;2024-02-21T00:03:13;101286.28;;;5.09;100.00
19600;BME280;9947;57.722;12.012;2024-02-21T00:05:43;101286.94;;;5.14;100.00
19600;BME280;9947;57.722;12.012;2024-02-21T00:08:21;101291.50;;;5.12;100.00
19600;BME280;9947;57.722;12.012;2024-02-21T00:11:06;101296.06;;;5.10;100.00
19600;BME280;9947;57.722;12.012;2024-02-21T00:13:36;101296.13;;;5.09;100.00
19600;BME280;9947;57.722;12.012;2024-02-21T00:16:05;101319.97;;;5.15;100.00
19600;BME280;9947;57.722;12.012;2024-02-21T00:18:49;101323.75;;;5.11;100.00
19600;BME280;9947;57.722;12.012;2024-02-21T00:21:31;101337.28;;;5.08;100.00
19600;BME280;9947;57.722;12.012;2024-02-21T00:23:59;101347.94;;;5.09;100.00
19600;BME280;9947;57.722;12.012;2024-02-21T00:26:29;101342.72;;;5.06;100.00
19600;BME280;9947;57.722;12.012;2024-02-21T00:29:12;101339.56;;;4.97;100.00
19600;BME280;9947;57.722;12.012;2024-02-21T00:31:41;101347.06;;;5.09;100.00
19600;BME280;9947;57.722;12.012;2024-02-21T00:34:12;101348.94;;;5.07;100.00
19600;BME280;9947;57.722;12.012;2024-02-21T00:36:39;101347.94;;;5.09;100.00
19600;BME280;9947;57.722;12.012;2024-02-21T00:39:09;101344.59;;;5.04;100.00
19600;BME280;9947;57.722;12.012;2024-02-21T00:41:41;101355.09;;;5.09;100.00
19600;BME280;9947;57.722;12.012;2024-02-21T00:44:11;101351.69;;;5.05;100.00
19600;BME280;9947;57.722;12.012;2024-02-21T00:46:41;101349.16;;;5.02;100.00
19600;BME280;9947;57.722;12.012;2024-02-21T00:49:10;101346.69;;;4.98;100.00
19600;BME280;9947;57.722;12.012;2024-02-21T00:51:38;101348.66;;;4.92;100.00
19600;BME280;9947;57.722;12.012;2024-02-21T00:54:20;101352.09;;;4.96;100.00
19600;BME280;9947;57.722;12.012;2024-02-21T00:56:50;101349.53;;;4.93;100.00
19600;BME280;9947;57.722;12.012;2024-02-21T00:59:21;101361.09;;;4.95;100.00
19600;BME280;9947;57.722;12.012;2024-02-21T01:01:53;101359.31;;;4.94;100.00
19600;BME280;9947;57.722;12.012;2024-02-21T01:04:20;101366.31;;;4.98;100.00
19600;BME280;9947;57.722;12.012;2024-02-21T01:06:47;101364.66;;;4.94;100.00
19600;BME280;9947;57.722;12.012;2024-02-21T01:09:16;101383.41;;;4.94;100.00
19600;BME280;9947;57.722;12.012;2024-02-21T01:11:44;101379.00;;;4.93;100.00
19600;BME280;9947;57.722;12.012;2024-02-21T01:14:14;101377.47;;;4.87;100.00
19600;BME280;9947;57.722;12.012;2024-02-21T01:16:42;101376.53;;;4.88;100.00
19600;BME280;9947;57.722;12.012;2024-02-21T01:19:18;101372.03;;;4.89;100.00
19600;BME280;9947;57.722;12.012;2024-02-21T01:21:57;101375.66;;;4.88;100.00
19600;BME280;9947;57.722;12.012;2024-02-21T01:24:41;101365.81;;;4.88;100.00
19600;BME280;9947;57.722;12.012;2024-02-21T01:27:43;101373.78;;;4.90;100.00
19600;BME280;9947;57.722;12.012;2024-02-21T01:30:26;101371.84;;;4.93;100.00
19600;BME280;9947;57.722;12.012;2024-02-21T01:33:06;101364.94;;;4.88;100.00
19600;BME280;9947;57.722;12.012;2024-02-21T01:35:52;101367.53;;;4.89;100.00
19600;BME280;9947;57.722;12.012;2024-02-21T01:38:32;101375.38;;;4.94;100.00
19600;BME280;9947;57.722;12.012;2024-02-21T01:41:00;101357.56;;;4.93;100.00
19600;BME280;9947;57.722;12.012;2024-02-21T01:43:31;101350.34;;;4.95;100.00
19600;BME280;9947;57.722;12.012;2024-02-21T01:46:09;101350.22;;;4.98;100.00
19600;BME280;9947;57.722;12.012;2024-02-21T01:48:42;101344.25;;;4.91;100.00
19600;BME280;9947;57.722;12.012;2024-02-21T01:51:16;101338.72;;;4.96;100.00
19600;BME280;9947;57.722;12.012;2024-02-21T01:53:44;101339.66;;;4.95;100.00
19600;BME280;9947;57.722;12.012;2024-02-21T01:56:12;101332.59;;;4.92;100.00
19600;BME280;9947;57.722;12.012;2024-02-21T01:58:43;101326.25;;;4.95;100.00
19600;BME280;9947;57.722;12.012;2024-02-21T02:01:13;101336.91;;;4.97;100.00
19600;BME280;9947;57.722;12.012;2024-02-21T02:03:44;101323.50;;;4.97;100.00
19600;BME280;9947;57.722;12.012;2024-02-21T02:06:16;101316.41;;;4.95;100.00
19600;BME280;9947;57.722;12.012;2024-02-21T02:08:59;101307.22;;;5.01;100.00
19600;BME280;9947;57.722;12.012;2024-02-21T02:11:27;101304.47;;;5.03;100.00
19600;BME280;9947;57.722;12.012;2024-02-21T02:13:55;101305.41;;;5.02;100.00
19600;BME280;9947;57.722;12.012;2024-02-21T02:16:24;101298.22;;;5.02;100.00
19600;BME280;9947;57.722;12.012;2024-02-21T02:19:05;101293.97;;;4.98;100.00
19600;BME280;9947;57.722;12.012;2024-02-21T02:21:42;101295.75;;;4.98;100.00
19600;BME280;9947;57.722;12.012;2024-02-21T02:24:11;101296.50;;;5.01;100.00
19600;BME280;9947;57.722;12.012;2024-02-21T02:26:39;101291.06;;;5.03;100.00
19600;BME280;9947;57.722;12.012;2024-02-21T02:29:07;101288.53;;;5.00;100.00
19600;BME280;9947;57.722;12.012;2024-02-21T02:31:37;101274.41;;;4.96;100.00
19600;BME280;9947;57.722;12.012;2024-02-21T02:34:06;101278.81;;;4.97;100.00
19600;BME280;9947;57.722;12.012;2024-02-21T02:36:37;101277.00;;;4.98;100.00
19600;BME280;9947;57.722;12.012;2024-02-21T02:39:08;101278.75;;;4.99;100.00
19600;BME280;9947;57.722;12.012;2024-02-21T02:41:47;101272.44;;;5.00;100.00
19600;BME280;9947;57.722;12.012;2024-02-21T02:44:15;101275.94;;;5.02;100.00
19600;BME280;9947;57.722;12.012;2024-02-21T02:46:51;101281.16;;;5.05;100.00
19600;BME280;9947;57.722;12.012;2024-02-21T02:49:19;101287.44;;;5.04;100.00
19600;BME280;9947;57.722;12.012;2024-02-21T02:52:00;101275.84;;;5.03;100.00
19600;BME280;9947;57.722;12.012;2024-02-21T02:54:28;101276.66;;;5.05;100.00
19600;BME280;9947;57.722;12.012;2024-02-21T02:57:01;101275.06;;;5.01;100.00
19600;BME280;9947;57.722;12.012;2024-02-21T02:59:47;101267.69;;;5.06;100.00
19600;BME280;9947;57.722;12.012;2024-02-21T03:02:14;101274.03;;;5.04;100.00
19600;BME280;9947;57.722;12.012;2024-02-21T03:04:43;101266.88;;;5.04;100.00
19600;BME280;9947;57.722;12.012;2024-02-21T03:07:21;101267.81;;;5.03;100.00
19600;BME280;9947;57.722;12.012;2024-02-21T03:09:49;101269.34;;;5.09;100.00
19600;BME280;9947;57.722;12.012;2024-02-21T03:12:33;101260.72;;;5.02;100.00
19600;BME280;9947;57.722;12.012;2024-02-21T03:15:01;101267.97;;;5.00;100.00
19600;BME280;9947;57.722;12.012;2024-02-21T03:17:28;101258.97;;;5.01;100.00
19600;BME280;9947;57.722;12.012;2024-02-21T03:19:58;101251.97;;;4.99;100.00
19600;BME280;9947;57.722;12.012;2024-02-21T03:22:27;101244.50;;;5.05;100.00
19600;BME280;9947;57.722;12.012;2024-02-21T03:24:55;101245.03;;;4.93;100.00
19600;BME280;9947;57.722;12.012;2024-02-21T03:27:25;101241.41;;;4.94;100.00
19600;BME280;9947;57.722;12.012;2024-02-21T03:29:56;101244.09;;;4.94;100.00
19600;BME280;9947;57.722;12.012;2024-02-21T03:32:25;101238.88;;;4.91;100.00
19600;BME280;9947;57.722;12.012;2024-02-21T03:34:54;101232.66;;;4.90;100.00
19600;BME280;9947;57.722;12.012;2024-02-21T03:37:22;101230.91;;;4.89;100.00
19600;BME280;9947;57.722;12.012;2024-02-21T03:39:50;101229.25;;;4.87;100.00
19600;BME280;9947;57.722;12.012;2024-02-21T03:42:19;101222.16;;;4.86;100.00
19600;BME280;9947;57.722;12.012;2024-02-21T03:44:50;101199.34;;;4.77;100.00
19600;BME280;9947;57.722;12.012;2024-02-21T03:47:24;101208.84;;;4.84;100.00
19600;BME280;9947;57.722;12.012;2024-02-21T03:49:54;101196.44;;;4.82;100.00
19600;BME280;9947;57.722;12.012;2024-02-21T03:52:22;101187.63;;;4.80;100.00
19600;BME280;9947;57.722;12.012;2024-02-21T03:54:51;101192.91;;;4.81;100.00
19600;BME280;9947;57.722;12.012;2024-02-21T03:57:20;101184.94;;;4.80;100.00
19600;BME280;9947;57.722;12.012;2024-02-21T03:59:50;101178.56;;;4.82;100.00
19600;BME280;9947;57.722;12.012;2024-02-21T04:02:24;101159.81;;;4.82;100.00
19600;BME280;9947;57.722;12.012;2024-02-21T04:04:55;101163.22;;;4.86;100.00
19600;BME280;9947;57.722;12.012;2024-02-21T04:07:23;101159.47;;;4.90;100.00
19600;BME280;9947;57.722;12.012;2024-02-21T04:09:51;101162.81;;;4.95;100.00
19600;BME280;9947;57.722;12.012;2024-02-21T04:12:18;101161.00;;;4.95;100.00
19600;BME280;9947;57.722;12.012;2024-02-21T04:14:46;101163.31;;;5.03;100.00
19600;BME280;9947;57.722;12.012;2024-02-21T04:17:13;101169.47;;;5.05;100.00
19600;BME280;9947;57.722;12.012;2024-02-21T04:19:43;101161.34;;;5.07;100.00
19600;BME280;9947;57.722;12.012;2024-02-21T04:22:11;101168.31;;;5.11;100.00
19600;BME280;9947;57.722;12.012;2024-02-21T04:24:40;101153.41;;;5.05;100.00
19600;BME280;9947;57.722;12.012;2024-02-21T04:27:08;101149.53;;;5.11;100.00
19600;BME280;9947;57.722;12.012;2024-02-21T04:29:36;101149.53;;;5.11;100.00
19600;BME280;9947;57.722;12.012;2024-02-21T04:32:06;101152.31;;;5.09;100.00
19600;BME280;9947;57.722;12.012;2024-02-21T04:34:35;101159.19;;;5.15;100.00
19600;BME280;9947;57.722;12.012;2024-02-21T04:37:04;101150.41;;;5.11;100.00
19600;BME280;9947;57.722;12.012;2024-02-21T04:39:31;101153.31;;;5.07;100.00
19600;BME280;9947;57.722;12.012;2024-02-21T04:41:58;101146.00;;;5.10;100.00
19600;BME280;9947;57.722;12.012;2024-02-21T04:44:27;101145.94;;;5.12;100.00
19600;BME280;9947;57.722;12.012;2024-02-21T04:46:55;101141.59;;;5.09;100.00
19600;BME280;9947;57.722;12.012;2024-02-21T04:49:24;101144.75;;;5.17;100.00
19600;BME280;9947;57.722;12.012;2024-02-21T04:51:51;101145.06;;;5.11;100.00
19600;BME280;9947;57.722;12.012;2024-02-21T04:54:21;101140.00;;;5.05;100.00
19600;BME280;9947;57.722;12.012;2024-02-21T04:56:52;101134.63;;;5.05;100.00
19600;BME280;9947;57.722;12.012;2024-02-21T04:59:21;101133.69;;;5.06;100.00
19600;BME280;9947;57.722;12.012;2024-02-21T05:01:50;101133.78;;;5.05;100.00
19600;BME280;9947;57.722;12.012;2024-02-21T05:04:18;101131.00;;;5.06;100.00
19600;BME280;9947;57.722;12.012;2024-02-21T05:06:47;101131.25;;;5.02;100.00
19600;BME280;9947;57.722;12.012;2024-02-21T05:09:15;101128.78;;;4.97;100.00
19600;BME280;9947;57.722;12.012;2024-02-21T05:11:44;101120.38;;;5.05;100.00
19600;BME280;9947;57.722;12.012;2024-02-21T05:14:12;101114.63;;;4.93;100.00
19600;BME280;9947;57.722;12.012;2024-02-21T05:16:39;101116.09;;;5.01;100.00
19600;BME280;9947;57.722;12.012;2024-02-21T05:19:07;101113.13;;;5.07;100.00
19600;BME280;9947;57.722;12.012;2024-02-21T05:21:35;101115.09;;;5.03;100.00
19600;BME280;9947;57.722;12.012;2024-02-21T05:24:02;101118.25;;;4.92;100.00
19600;BME280;9947;57.722;12.012;2024-02-21T05:26:29;101123.34;;;4.99;100.00
19600;BME280;9947;57.722;12.012;2024-02-21T05:28:58;101120.81;;;4.95;100.00
19600;BME280;9947;57.722;12.012;2024-02-21T05:31:54;101114.59;;;4.95;100.00
19600;BME280;9947;57.722;12.012;2024-02-21T05:34:23;101117.13;;;4.98;100.00
19600;BME280;9947;57.722;12.012;2024-02-21T05:36:52;101117.13;;;4.98;100.00
19600;BME280;9947;57.722;12.012;2024-02-21T05:39:22;101118.19;;;4.94;100.00
19600;BME280;9947;57.722;12.012;2024-02-21T05:41:50;101119.00;;;4.96;100.00
19600;BME280;9947;57.722;12.012;2024-02-21T05:44:20;101115.72;;;4.89;100.00
19600;BME280;9947;57.722;12.012;2024-02-21T05:46:52;101110.03;;;4.78;100.00
19600;BME280;9947;57.722;12.012;2024-02-21T05:49:21;101108.28;;;4.77;100.00
19600;BME280;9947;57.722;12.012;2024-02-21T05:51:53;101106.53;;;4.76;100.00
19600;BME280;9947;57.722;12.012;2024-02-21T05:54:21;101104.22;;;4.69;100.00
19600;BME280;9947;57.722;12.012;2024-02-21T05:56:49;101106.75;;;4.72;100.00
19600;BME280;9947;57.722;12.012;2024-02-21T05:59:18;101096.78;;;4.75;100.00
19600;BME280;9947;57.722;12.012;2024-02-21T06:01:56;101091.19;;;4.80;100.00
19600;BME280;9947;57.722;12.012;2024-02-21T06:04:24;101113.28;;;4.85;100.00
19600;BME280;9947;57.722;12.012;2024-02-21T06:06:52;101104.28;;;4.86;100.00
19600;BME280;9947;57.722;12.012;2024-02-21T06:09:21;101114.22;;;4.84;100.00
19600;BME280;9947;57.722;12.012;2024-02-21T06:11:49;101110.75;;;4.82;100.00
19600;BME280;9947;57.722;12.012;2024-02-21T06:14:18;101092.75;;;4.65;100.00
19600;BME280;9947;57.722;12.012;2024-02-21T06:16:47;101103.41;;;4.67;100.00
19600;BME280;9947;57.722;12.012;2024-02-21T06:19:19;101099.78;;;4.68;100.00
19600;BME280;9947;57.722;12.012;2024-02-21T06:21:48;101090.97;;;4.65;100.00
19600;BME280;9947;57.722;12.012;2024-02-21T06:24:16;101091.47;;;4.55;100.00
19600;BME280;9947;57.722;12.012;2024-02-21T06:26:46;101085.25;;;4.54;100.00
19600;BME280;9947;57.722;12.012;2024-02-21T06:29:15;101092.41;;;4.54;100.00
19600;BME280;9947;57.722;12.012;2024-02-21T06:31:42;101098.50;;;4.57;100.00
19600;BME280;9947;57.722;12.012;2024-02-21T06:34:09;101095.00;;;4.55;100.00
19600;BME280;9947;57.722;12.012;2024-02-21T06:36:38;101089.81;;;4.52;100.00
19600;BME280;9947;57.722;12.012;2024-02-21T06:39:06;101086.19;;;4.53;100.00
19600;BME280;9947;57.722;12.012;2024-02-21T06:41:37;101089.00;;;4.50;100.00
19600;BME280;9947;57.722;12.012;2024-02-21T06:44:07;101093.56;;;4.48;100.00
19600;BME280;9947;57.722;12.012;2024-02-21T06:46:34;101084.59;;;4.49;100.00
19600;BME280;9947;57.722;12.012;2024-02-21T06:49:04;101095.22;;;4.51;100.00
19600;BME280;9947;57.722;12.012;2024-02-21T06:51:32;101086.72;;;4.41;100.00
19600;BME280;9947;57.722;12.012;2024-02-21T06:54:02;101082.84;;;4.48;100.00
19600;BME280;9947;57.722;12.012;2024-02-21T06:56:30;101079.47;;;4.45;100.00
19600;BME280;9947;57.722;12.012;2024-02-21T06:58:57;101093.41;;;4.51;100.00
19600;BME280;9947;57.722;12.012;2024-02-21T07:01:24;101089.28;;;4.44;100.00
19600;BME280;9947;57.722;12.012;2024-02-21T07:03:54;101094.28;;;4.52;100.00
19600;BME280;9947;57.722;12.012;2024-02-21T07:06:21;101095.88;;;4.56;100.00
19600;BME280;9947;57.722;12.012;2024-02-21T07:08:49;101099.44;;;4.56;100.00
19600;BME280;9947;57.722;12.012;2024-02-21T07:11:20;101095.88;;;4.56;100.00
19600;BME280;9947;57.722;12.012;2024-02-21T07:13:47;101106.38;;;4.60;100.00
19600;BME280;9947;57.722;12.012;2024-02-21T07:16:14;101103.03;;;4.55;100.00
19600;BME280;9947;57.722;12.012;2024-02-21T07:18:41;101114.69;;;4.54;100.00
19600;BME280;9947;57.722;12.012;2024-02-21T07:21:09;101111.94;;;4.56;100.00
19600;BME280;9947;57.722;12.012;2024-02-21T07:23:40;101115.41;;;4.58;100.00
19600;BME280;9947;57.722;12.012;2024-02-21T07:26:07;101110.13;;;4.56;100.00
19600;BME280;9947;57.722;12.012;2024-02-21T07:28:36;101107.75;;;4.50;100.00
19600;BME280;9947;57.722;12.012;2024-02-21T07:31:04;101109.28;;;4.56;100.00
19600;BME280;9947;57.722;12.012;2024-02-21T07:33:32;101119.75;;;4.60;100.00
19600;BME280;9947;57.722;12.012;2024-02-21T07:36:01;101128.81;;;4.58;100.00
19600;BME280;9947;57.722;12.012;2024-02-21T07:38:29;101134.88;;;4.61;100.00
19600;BME280;9947;57.722;12.012;2024-02-21T07:40:58;101143.78;;;4.62;100.00
19600;BME280;9947;57.722;12.012;2024-02-21T07:43:26;101139.16;;;4.65;100.00
19600;BME280;9947;57.722;12.012;2024-02-21T07:45:54;101129.75;;;4.57;100.00
19600;BME280;9947;57.722;12.012;2024-02-21T07:48:21;101127.00;;;4.58;100.00
19600;BME280;9947;57.722;12.012;2024-02-21T07:50:52;101135.19;;;4.55;100.00
19600;BME280;9947;57.722;12.012;2024-02-21T07:53:20;101138.88;;;4.53;100.00
19600;BME280;9947;57.722;12.012;2024-02-21T07:55:50;101141.47;;;4.54;100.00
19600;BME280;9947;57.722;12.012;2024-02-21T07:58:20;101124.69;;;4.51;100.00
19600;BME280;9947;57.722;12.012;2024-02-21T08:00:49;101128.16;;;4.53;100.00
19600;BME280;9947;57.722;12.012;2024-02-21T08:03:18;101132.94;;;4.46;100.00
19600;BME280;9947;57.722;12.012;2024-02-21T08:05:46;101133.88;;;4.45;100.00
19600;BME280;9947;57.722;12.012;2024-02-21T08:08:15;101134.88;;;4.43;100.00
19600;BME280;9947;57.722;12.012;2024-02-21T08:10:45;101132.44;;;4.37;100.00
19600;BME280;9947;57.722;12.012;2024-02-21T08:13:12;101142.00;;;4.42;100.00
19600;BME280;9947;57.722;12.012;2024-02-21T08:15:43;101146.63;;;4.39;100.00
19600;BME280;9947;57.722;12.012;2024-02-21T08:18:15;101154.34;;;4.46;100.00
19600;BME280;9947;57.722;12.012;2024-02-21T08:20:56;101158.41;;;4.55;100.00
19600;BME280;9947;57.722;12.012;2024-02-21T08:23:24;101153.78;;;4.58;100.00
19600;BME280;9947;57.722;12.012;2024-02-21T08:25:52;101171.25;;;4.86;100.00
19600;BME280;9947;57.722;12.012;2024-02-21T08:28:34;101173.00;;;4.87;100.00
19600;BME280;9947;57.722;12.012;2024-02-21T08:31:06;101170.59;;;4.81;100.00
19600;BME280;9947;57.722;12.012;2024-02-21T08:33:35;101179.94;;;4.91;100.00
19600;BME280;9947;57.722;12.012;2024-02-21T08:36:08;101185.59;;;4.85;100.00
19600;BME280;9947;57.722;12.012;2024-02-21T08:38:41;101197.09;;;4.87;100.00
19600;BME280;9947;57.722;12.012;2024-02-21T08:41:10;101194.56;;;4.84;100.00
19600;BME280;9947;57.722;12.012;2024-02-21T08:43:40;101201.44;;;4.89;100.00
19600;BME280;9947;57.722;12.012;2024-02-21T08:46:11;101215.53;;;4.94;100.00
19600;BME280;9947;57.722;12.012;2024-02-21T08:48:55;101222.19;;;5.05;100.00
19600;BME280;9947;57.722;12.012;2024-02-21T08:51:34;101221.03;;;5.10;100.00
19600;BME280;9947;57.722;12.012;2024-02-21T08:54:03;101224.16;;;5.01;100.00
19600;BME280;9947;57.722;12.012;2024-02-21T08:56:44;101224.28;;;4.98;100.00
19600;BME280;9947;57.722;12.012;2024-02-21T08:59:20;101219.00;;;4.97;100.00
19600;BME280;9947;57.722;12.012;2024-02-21T09:02:02;101216.41;;;4.95;100.00
19600;BME280;9947;57.722;12.012;2024-02-21T09:04:32;101214.09;;;5.06;100.00
19600;BME280;9947;57.722;12.012;2024-02-21T09:07:05;101228.13;;;5.11;100.00
19600;BME280;9947;57.722;12.012;2024-02-21T09:09:35;101230.59;;;5.16;100.00
19600;BME280;9947;57.722;12.012;2024-02-21T09:12:05;101234.38;;;5.31;100.00
19600;BME280;9947;57.722;12.012;2024-02-21T09:14:34;101241.19;;;5.38;100.00
19600;BME280;9947;57.722;12.012;2024-02-21T09:17:10;101243.78;;;5.39;100.00
19600;BME280;9947;57.722;12.012;2024-02-21T09:19:39;101249.63;;;5.49;100.00
19600;BME280;9947;57.722;12.012;2024-02-21T09:22:29;101248.13;;;5.42;100.00
19600;BME280;9947;57.722;12.012;2024-02-21T09:25:16;101236.91;;;5.34;100.00
19600;BME280;9947;57.722;12.012;2024-02-21T09:27:47;101223.00;;;5.25;100.00
19600;BME280;9947;57.722;12.012;2024-02-21T09:30:21;101218.00;;;5.18;100.00
19600;BME280;9947;57.722;12.012;2024-02-21T09:33:05;101230.88;;;5.10;100.00
19600;BME280;9947;57.722;12.012;2024-02-21T09:35:52;101228.84;;;4.96;100.00
19600;BME280;9947;57.722;12.012;2024-02-21T09:38:43;101215.84;;;4.87;100.00
19600;BME280;9947;57.722;12.012;2024-02-21T09:41:16;101207.69;;;4.90;100.00
19600;BME280;9947;57.722;12.012;2024-02-21T09:43:46;101208.28;;;5.15;100.00
19600;BME280;9947;57.722;12.012;2024-02-21T09:46:24;101225.09;;;5.19;100.00
19600;BME280;9947;57.722;12.012;2024-02-21T09:49:25;101207.09;;;5.22;100.00
19600;BME280;9947;57.722;12.012;2024-02-21T09:52:12;101209.88;;;5.38;100.00
19600;BME280;9947;57.722;12.012;2024-02-21T09:54:45;101215.97;;;5.42;100.00
19600;BME280;9947;57.722;12.012;2024-02-21T09:57:23;101234.97;;;5.37;100.00
19600;BME280;9947;57.722;12.012;2024-02-21T09:59:55;101264.66;;;5.33;100.00
19600;BME280;9947;57.722;12.012;2024-02-21T10:02:29;101266.91;;;5.42;100.00
19600;BME280;9947;57.722;12.012;2024-02-21T10:05:03;101273.22;;;5.41;100.00
19600;BME280;9947;57.722;12.012;2024-02-21T10:07:42;101290.78;;;5.48;100.00
19600;BME280;9947;57.722;12.012;2024-02-21T10:10:15;101287.88;;;5.52;100.00
19600;BME280;9947;57.722;12.012;2024-02-21T10:12:52;101292.72;;;5.44;100.00
19600;BME280;9947;57.722;12.012;2024-02-21T10:15:20;101291.75;;;5.45;100.00
19600;BME280;9947;57.722;12.012;2024-02-21T10:17:58;101304.75;;;5.54;100.00
19600;BME280;9947;57.722;12.012;2024-02-21T10:20:32;101313.97;;;5.49;100.00
19600;BME280;9947;57.722;12.012;2024-02-21T10:23:03;101312.22;;;5.48;100.00
19600;BME280;9947;57.722;12.012;2024-02-21T10:25:42;101298.00;;;5.46;100.00
19600;BME280;9947;57.722;12.012;2024-02-21T10:28:23;101294.31;;;5.30;100.00
19600;BME280;9947;57.722;12.012;2024-02-21T10:31:22;101308.00;;;5.23;100.00
19600;BME280;9947;57.722;12.012;2024-02-21T10:34:20;101313.69;;;5.16;100.00
19600;BME280;9947;57.722;12.012;2024-02-21T10:37:08;101302.69;;;5.22;100.00
19600;BME280;9947;57.722;12.012;2024-02-21T10:39:49;101308.78;;;5.25;100.00
19600;BME280;9947;57.722;12.012;2024-02-21T10:42:26;101306.44;;;5.18;100.00
19600;BME280;9947;57.722;12.012;2024-02-21T10:45:07;101316.09;;;5.22;100.00
19600;BME280;9947;57.722;12.012;2024-02-21T10:47:55;101297.28;;;5.03;100.00
19600;BME280;9947;57.722;12.012;2024-02-21T10:50:25;101285.72;;;5.03;100.00
19600;BME280;9947;57.722;12.012;2024-02-21T10:53:14;101278.53;;;5.03;100.00
19600;BME280;9947;57.722;12.012;2024-02-21T10:55:55;101256.25;;;4.82;100.00
19600;BME280;9947;57.722;12.012;2024-02-21T10:58:45;101242.72;;;4.85;100.00
19600;BME280;9947;57.722;12.012;2024-02-21T11:01:30;101252.84;;;4.79;100.00
19600;BME280;9947;57.722;12.012;2024-02-21T11:04:12;101244.06;;;4.75;100.00
19600;BME280;9947;57.722;12.012;2024-02-21T11:06:57;101236.25;;;4.71;100.00
19600;BME280;9947;57.722;12.012;2024-02-21T11:09:51;101215.16;;;4.63;100.00
19600;BME280;9947;57.722;12.012;2024-02-21T11:12:21;101209.06;;;4.59;100.00
19600;BME280;9947;57.722;12.012;2024-02-21T11:15:06;101206.47;;;4.58;100.00
19600;BME280;9947;57.722;12.012;2024-02-21T11:17:34;101203.19;;;4.72;100.00
19600;BME280;9947;57.722;12.012;2024-02-21T11:20:17;101204.84;;;4.74;100.00
19600;BME280;9947;57.722;12.012;2024-02-21T11:22:49;101188.22;;;4.47;100.00
19600;BME280;9947;57.722;12.012;2024-02-21T11:28:26;101161.28;;;4.50;100.00
19600;BME280;9947;57.722;12.012;2024-02-21T11:31:13;101145.81;;;4.57;100.00
19600;BME280;9947;57.722;12.012;2024-02-21T11:33:57;101134.44;;;4.52;100.00
19600;BME280;9947;57.722;12.012;2024-02-21T11:36:49;101107.09;;;4.64;100.00
19600;BME280;9947;57.722;12.012;2024-02-21T11:39:20;101090.69;;;4.72;100.00
19600;BME280;9947;57.722;12.012;2024-02-21T11:42:06;101075.56;;;4.71;100.00
19600;BME280;9947;57.722;12.012;2024-02-21T11:44:50;101050.38;;;4.75;100.00
19600;BME280;9947;57.722;12.012;2024-02-21T11:47:48;101025.56;;;4.71;100.00
19600;BME280;9947;57.722;12.012;2024-02-21T11:50:25;101012.44;;;4.84;100.00
19600;BME280;9947;57.722;12.012;2024-02-21T11:52:54;100973.50;;;4.77;100.00
19600;BME280;9947;57.722;12.012;2024-02-21T11:55:51;100929.34;;;5.03;100.00
19600;BME280;9947;57.722;12.012;2024-02-21T11:58:30;100893.97;;;4.96;100.00
19600;BME280;9947;57.722;12.012;2024-02-21T12:01:13;100870.78;;;5.12;100.00
19600;BME280;9947;57.722;12.012;2024-02-21T12:03:59;100840.16;;;5.34;100.00
19600;BME280;9947;57.722;12.012;2024-02-21T12:06:42;100787.88;;;5.09;100.00
19600;BME280;9947;57.722;12.012;2024-02-21T12:09:18;100751.50;;;4.88;100.00
19600;BME280;9947;57.722;12.012;2024-02-21T12:11:57;100749.53;;;5.24;100.00
19600;BME280;9947;57.722;12.012;2024-02-21T12:14:25;100734.41;;;5.23;100.00
19600;BME280;9947;57.722;12.012;2024-02-21T12:16:56;100695.00;;;5.25;100.00
19600;BME280;9947;57.722;12.012;2024-02-21T12:19:45;100675.63;;;5.36;100.00
19600;BME280;9947;57.722;12.012;2024-02-21T12:22:50;100650.53;;;5.53;100.00
19600;BME280;9947;57.722;12.012;2024-02-21T12:25:34;100608.41;;;5.55;100.00
19600;BME280;9947;57.722;12.012;2024-02-21T12:28:15;100592.34;;;6.01;100.00
19600;BME280;9947;57.722;12.012;2024-02-21T12:30:47;100551.81;;;6.05;100.00
19600;BME280;9947;57.722;12.012;2024-02-21T12:33:15;100504.59;;;5.87;100.00
19600;BME280;9947;57.722;12.012;2024-02-21T12:35:45;100490.66;;;6.10;100.00
19600;BME280;9947;57.722;12.012;2024-02-21T12:38:14;100449.16;;;6.30;100.00
19600;BME280;9947;57.722;12.012;2024-02-21T12:40:47;100405.25;;;6.17;100.00
19600;BME280;9947;57.722;12.012;2024-02-21T12:43:15;100388.16;;;6.32;100.00
19600;BME280;9947;57.722;12.012;2024-02-21T12:45:47;100356.94;;;6.17;100.00
19600;BME280;9947;57.722;12.012;2024-02-21T12:48:18;100337.69;;;6.10;100.00
19600;BME280;9947;57.722;12.012;2024-02-21T12:50:50;100320.50;;;6.27;100.00
19600;BME280;9947;57.722;12.012;2024-02-21T12:53:19;100313.00;;;6.32;100.00
19600;BME280;9947;57.722;12.012;2024-02-21T12:55:50;100306.34;;;6.11;100.00
19600;BME280;9947;57.722;12.012;2024-02-21T12:58:17;100307.84;;;6.29;100.00
19600;BME280;9947;57.722;12.012;2024-02-21T13:00:46;100307.66;;;6.18;100.00
19600;BME280;9947;57.722;12.012;2024-02-21T13:03:14;100305.91;;;6.31;100.00
19600;BME280;9947;57.722;12.012;2024-02-21T13:05:41;100293.06;;;6.22;100.00
19600;BME280;9947;57.722;12.012;2024-02-21T13:08:25;100294.97;;;6.34;100.00
19600;BME280;9947;57.722;12.012;2024-02-21T13:10:54;100288.84;;;6.32;100.00
19600;BME280;9947;57.722;12.012;2024-02-21T13:13:22;100281.69;;;6.45;100.00
19600;BME280;9947;57.722;12.012;2024-02-21T13:15:50;100282.75;;;6.43;100.00
19600;BME280;9947;57.722;12.012;2024-02-21T13:18:18;100270.50;;;6.39;100.00
19600;BME280;9947;57.722;12.012;2024-02-21T13:20:50;100275.00;;;6.38;100.00
19600;BME280;9947;57.722;12.012;2024-02-21T13:23:20;100276.63;;;6.41;100.00